Time,TemperatureF,DewpointF,PressureIn,WindDirection,WindDirectionDegrees,WindSpeedMPH,WindSpeedGustMPH,Humidity,HourlyPrecipIn,Conditions,Clouds,dailyrainin,SoftwareType,DateUTC
2013-02-21 00:00:00,16.0,14.0,-100.00,North,-999,-999.0,-999.0,93,-99.99,,,-99.99,,2013-02-21 07:00:00,
2013-02-21 00:32:00,16.0,14.0,-100.00,North,-999,-999.0,-999.0,93,-99.99,,,-99.99,,2013-02-21 07:32:00,
2013-02-21 00:42:00,16.0,14.0,-100.00,North,-999,-999.0,-999.0,93,-99.99,,,-99.99,,2013-02-21 07:42:00,
2013-02-21 00:52:00,16.0,14.0,-100.00,North,-999,-999.0,-999.0,93,-99.99,,,-99.99,,2013-02-21 07:52:00,
2013-02-21 01:00:00,14.0,13.0,-100.00,North,-999,-999.0,-999.0,94,-99.99,,,-99.99,,2013-02-21 08:00:00,
2013-02-21 01:32:00,14.0,13.0,-100.00,North,-999,-999.0,-999.0,94,-99.99,,,-99.99,,2013-02-21 08:32:00,
2013-02-21 01:42:00,14.0,13.0,-100.00,North,-999,-999.0,-999.0,94,-99.99,,,-99.99,,2013-02-21 08:42:00,
2013-02-21 01:52:00,14.0,13.0,-100.00,North,-999,-999.0,-999.0,94,-99.99,,,-99.99,,2013-02-21 08:52:00,
2013-02-21 02:00:00,13.0,11.0,-100.00,North,-999,-999.0,-999.0,93,-99.99,,,-99.99,,2013-02-21 09:00:00,
2013-02-21 02:32:00,13.0,11.0,-100.00,North,-999,-999.0,-999.0,93,-99.99,,,-99.99,,2013-02-21 09:32:00,
2013-02-21 02:42:00,13.0,11.0,-100.00,North,-999,-999.0,-999.0,93,-99.99,,,-99.99,,2013-02-21 09:42:00,
2013-02-21 02:52:00,13.0,11.0,-100.00,North,-999,-999.0,-999.0,93,-99.99,,,-99.99,,2013-02-21 09:52:00,
2013-02-21 03:00:00,12.0,11.0,-100.00,North,-999,-999.0,-999.0,93,-99.99,,,-99.99,,2013-02-21 10:00:00,
2013-02-21 03:31:00,12.0,11.0,-100.00,North,-999,-999.0,-999.0,93,-99.99,,,-99.99,,2013-02-21 10:31:00,
2013-02-21 03:41:00,12.0,11.0,-100.00,North,-999,-999.0,-999.0,93,-99.99,,,-99.99,,2013-02-21 10:41:00,
2013-02-21 03:51:00,12.0,11.0,-100.00,North,-999,-999.0,-999.0,93,-99.99,,,-99.99,,2013-02-21 10:51:00,
2013-02-21 05:00:00,11.0,9.0,-100.00,North,-999,-999.0,-999.0,93,-99.99,,,-99.99,,2013-02-21 12:00:00,
2013-02-21 05:32:00,11.0,9.0,-100.00,North,-999,-999.0,-999.0,93,-99.99,,,-99.99,,2013-02-21 12:32:00,
2013-02-21 05:43:00,11.0,9.0,-100.00,North,-999,-999.0,-999.0,93,-99.99,,,-99.99,,2013-02-21 12:43:00,
2013-02-21 05:52:00,11.0,9.0,-100.00,North,-999,-999.0,-999.0,93,-99.99,,,-99.99,,2013-02-21 12:52:00,
2013-02-21 06:00:00,10.0,8.0,-100.00,North,-999,-999.0,-999.0,92,-99.99,,,-99.99,,2013-02-21 13:00:00,
2013-02-21 06:32:00,10.0,8.0,-100.00,North,-999,-999.0,-999.0,92,-99.99,,,-99.99,,2013-02-21 13:32:00,
2013-02-21 06:42:00,10.0,8.0,-100.00,North,-999,-999.0,-999.0,92,-99.99,,,-99.99,,2013-02-21 13:42:00,
2013-02-21 06:52:00,10.0,8.0,-100.00,North,-999,-999.0,-999.0,92,-99.99,,,-99.99,,2013-02-21 13:52:00,
2013-02-21 07:00:00,9.0,8.0,-100.00,North,-999,-999.0,-999.0,92,-99.99,,,-99.99,,2013-02-21 14:00:00,
2013-02-21 07:32:00,9.0,8.0,-100.00,North,-999,-999.0,-999.0,92,-99.99,,,-99.99,,2013-02-21 14:32:00,
2013-02-21 07:42:00,9.0,8.0,-100.00,North,-999,-999.0,-999.0,92,-99.99,,,-99.99,,2013-02-21 14:42:00,
2013-02-21 07:52:00,9.0,8.0,-100.00,North,-999,-999.0,-999.0,92,-99.99,,,-99.99,,2013-02-21 14:52:00,
2013-02-21 08:00:00,9.0,7.0,-100.00,North,-999,-999.0,-999.0,92,-99.99,,,-99.99,,2013-02-21 15:00:00,
2013-02-21 08:32:00,9.0,7.0,-100.00,North,-999,-999.0,-999.0,92,-99.99,,,-99.99,,2013-02-21 15:32:00,
2013-02-21 08:42:00,9.0,7.0,-100.00,North,-999,-999.0,-999.0,92,-99.99,,,-99.99,,2013-02-21 15:42:00,
2013-02-21 08:52:00,9.0,7.0,-100.00,North,-999,-999.0,-999.0,92,-99.99,,,-99.99,,2013-02-21 15:52:00,
2013-02-21 09:00:00,12.0,10.0,-100.00,North,-999,-999.0,-999.0,91,-99.99,,,-99.99,,2013-02-21 16:00:00,
2013-02-21 09:32:00,12.0,10.0,-100.00,North,-999,-999.0,-999.0,91,-99.99,,,-99.99,,2013-02-21 16:32:00,
2013-02-21 09:42:00,12.0,10.0,-100.00,North,-999,-999.0,-999.0,91,-99.99,,,-99.99,,2013-02-21 16:42:00,
2013-02-21 09:52:00,12.0,10.0,-100.00,North,-999,-999.0,-999.0,91,-99.99,,,-99.99,,2013-02-21 16:52:00,
2013-02-21 10:00:00,22.0,15.0,-100.00,North,-999,-999.0,-999.0,72,-99.99,,,-99.99,,2013-02-21 17:00:00,
2013-02-21 10:32:00,22.0,15.0,-100.00,North,-999,-999.0,-999.0,72,-99.99,,,-99.99,,2013-02-21 17:32:00,
2013-02-21 10:42:00,22.0,15.0,-100.00,North,-999,-999.0,-999.0,72,-99.99,,,-99.99,,2013-02-21 17:42:00,
2013-02-21 10:52:00,22.0,15.0,-100.00,North,-999,-999.0,-999.0,72,-99.99,,,-99.99,,2013-02-21 17:52:00,
2013-02-21 14:00:00,15.0,11.0,-100.00,North,-999,-999.0,-999.0,84,-99.99,,,-99.99,,2013-02-21 21:00:00,
2013-02-21 18:00:00,9.0,6.0,-100.00,North,-999,-999.0,-999.0,88,-99.99,,,-99.99,,2013-02-22 01:00:00,
2013-02-21 22:00:00,7.0,5.0,-100.00,North,-999,-999.0,-999.0,91,-99.99,,,-99.99,,2013-02-22 05:00:00,